Time,TemperatureF,DewpointF,PressureIn,WindDirection,WindDirectionDegrees,WindSpeedMPH,WindSpeedGustMPH,Humidity,HourlyPrecipIn,Conditions,Clouds,dailyrainin,SoftwareType,DateUTC
2013-04-26 00:01:00,57.0,32.0,29.91,West,270,2.0,5.0,39,0.00,,,0.00,,2013-04-26 07:01:00,
2013-04-26 00:11:00,57.0,32.0,29.91,West,270,2.0,5.0,39,0.00,,,0.00,,2013-04-26 07:11:00,
2013-04-26 00:21:00,56.0,33.0,29.91,West,270,0.0,3.0,41,0.00,,,0.00,,2013-04-26 07:21:00,
2013-04-26 00:31:00,56.0,33.0,29.91,West,270,5.0,6.0,42,0.00,,,0.00,,2013-04-26 07:31:00,
2013-04-26 00:42:00,56.0,33.0,29.91,West,270,5.0,6.0,42,0.00,,,0.00,,2013-04-26 07:42:00,
2013-04-26 00:52:00,55.0,33.0,29.91,West,270,4.0,8.0,43,0.00,,,0.00,,2013-04-26 07:52:00,
2013-04-26 01:02:00,55.0,32.0,29.91,West,270,6.0,8.0,42,0.00,,,0.00,,2013-04-26 08:02:00,
2013-04-26 01:11:00,55.0,32.0,29.91,West,270,6.0,8.0,42,0.00,,,0.00,,2013-04-26 08:11:00,
2013-04-26 01:21:00,55.0,32.0,29.91,West,269,6.0,8.0,42,0.00,,,0.00,,2013-04-26 08:21:00,
2013-04-26 01:31:00,55.0,32.0,29.91,SW,225,6.0,8.0,42,0.00,,,0.00,,2013-04-26 08:31:00,
2013-04-26 01:42:00,55.0,32.0,29.91,SW,225,6.0,8.0,42,0.00,,,0.00,,2013-04-26 08:42:00,
2013-04-26 01:52:00,54.0,32.0,29.91,WSW,248,7.0,9.0,43,0.00,,,0.00,,2013-04-26 08:52:00,
2013-04-26 02:01:00,53.0,33.0,29.91,SW,225,5.0,7.0,46,0.00,,,0.00,,2013-04-26 09:01:00,
2013-04-26 02:11:00,53.0,33.0,29.91,SW,225,5.0,7.0,46,0.00,,,0.00,,2013-04-26 09:11:00,
2013-04-26 02:21:00,53.0,32.0,29.91,SW,225,3.0,6.0,45,0.00,,,0.00,,2013-04-26 09:21:00,
2013-04-26 02:32:00,53.0,32.0,29.91,SW,225,4.0,6.0,45,0.00,,,0.00,,2013-04-26 09:32:00,
2013-04-26 02:42:00,53.0,32.0,29.91,SW,225,4.0,6.0,45,0.00,,,0.00,,2013-04-26 09:42:00,
2013-04-26 02:53:00,53.0,32.0,29.91,SW,225,3.0,3.0,44,0.00,,,0.00,,2013-04-26 09:53:00,
2013-04-26 03:02:00,53.0,31.0,29.91,SW,225,1.0,5.0,43,0.00,,,0.00,,2013-04-26 10:02:00,
2013-04-26 03:12:00,53.0,31.0,29.91,SW,225,1.0,5.0,43,0.00,,,0.00,,2013-04-26 10:12:00,
2013-04-26 03:22:00,53.0,31.0,29.91,SW,225,3.0,5.0,42,0.00,,,0.00,,2013-04-26 10:22:00,
2013-04-26 03:32:00,54.0,31.0,29.91,SW,225,4.0,5.0,41,0.00,,,0.00,,2013-04-26 10:32:00,
2013-04-26 03:41:00,54.0,31.0,29.91,SW,225,4.0,5.0,41,0.00,,,0.00,,2013-04-26 10:41:00,
2013-04-26 03:52:00,53.0,31.0,29.91,SW,225,2.0,5.0,42,0.00,,,0.00,,2013-04-26 10:52:00,
2013-04-26 04:02:00,53.0,31.0,29.91,WSW,248,5.0,6.0,43,0.00,,,0.00,,2013-04-26 11:02:00,
2013-04-26 04:11:00,53.0,31.0,29.91,WSW,248,5.0,6.0,43,0.00,,,0.00,,2013-04-26 11:11:00,
2013-04-26 04:21:00,52.0,30.0,29.91,SW,225,3.0,6.0,43,0.00,,,0.00,,2013-04-26 11:21:00,
2013-04-26 04:32:00,53.0,31.0,29.91,SW,225,5.0,6.0,42,0.00,,,0.00,,2013-04-26 11:32:00,
2013-04-26 04:41:00,53.0,31.0,29.91,SW,225,5.0,6.0,42,0.00,,,0.00,,2013-04-26 11:41:00,
2013-04-26 04:52:00,53.0,31.0,29.91,SW,225,2.0,5.0,42,0.00,,,0.00,,2013-04-26 11:52:00,
2013-04-26 05:01:00,53.0,31.0,29.91,SW,225,2.0,5.0,42,0.00,,,0.00,,2013-04-26 12:01:00,
2013-04-26 05:11:00,53.0,31.0,29.91,SW,225,2.0,5.0,42,0.00,,,0.00,,2013-04-26 12:11:00,
2013-04-26 05:21:00,53.0,29.0,29.91,SW,225,1.0,3.0,39,0.00,,,0.00,,2013-04-26 12:21:00,
2013-04-26 05:32:00,53.0,27.0,29.94,SW,225,3.0,5.0,37,0.00,,,0.00,,2013-04-26 12:32:00,
2013-04-26 05:41:00,53.0,27.0,29.94,SW,225,3.0,5.0,37,0.00,,,0.00,,2013-04-26 12:41:00,
2013-04-26 05:52:00,53.0,28.0,29.91,SW,225,2.0,3.0,38,0.00,,,0.00,,2013-04-26 12:52:00,
2013-04-26 06:01:00,53.0,27.0,29.94,SW,225,5.0,6.0,37,0.00,,,0.00,,2013-04-26 13:01:00,
2013-04-26 06:11:00,53.0,27.0,29.94,SW,225,5.0,6.0,37,0.00,,,0.00,,2013-04-26 13:11:00,
2013-04-26 06:21:00,53.0,27.0,29.94,SW,225,3.0,5.0,36,0.00,,,0.00,,2013-04-26 13:21:00,
2013-04-26 06:31:00,54.0,26.0,29.94,SW,225,3.0,5.0,34,0.00,,,0.00,,2013-04-26 13:31:00,
2013-04-26 06:41:00,54.0,26.0,29.94,SW,225,3.0,5.0,34,0.00,,,0.00,,2013-04-26 13:41:00,
2013-04-26 06:52:00,55.0,26.0,29.94,SW,225,3.0,5.0,33,0.00,,,0.00,,2013-04-26 13:52:00,
2013-04-26 07:01:00,56.0,27.0,29.94,SW,225,3.0,5.0,32,0.00,,,0.00,,2013-04-26 14:01:00,
2013-04-26 07:11:00,56.0,27.0,29.94,SW,225,3.0,5.0,32,0.00,,,0.00,,2013-04-26 14:11:00,
2013-04-26 07:21:00,58.0,28.0,29.94,WSW,248,5.0,8.0,31,0.00,,,0.00,,2013-04-26 14:21:00,
2013-04-26 07:31:00,59.0,28.0,29.94,SW,225,4.0,5.0,31,0.00,,,0.00,,2013-04-26 14:31:00,
2013-04-26 07:52:00,61.0,30.0,29.97,WSW,248,5.0,8.0,31,0.00,,,0.00,,2013-04-26 14:52:00,
2013-04-26 08:01:00,61.0,29.0,29.97,WSW,248,5.0,7.0,30,0.00,,,0.00,,2013-04-26 15:01:00,
2013-04-26 08:21:00,63.0,31.0,29.97,WSW,248,4.0,6.0,30,0.00,,,0.00,,2013-04-26 15:21:00,
2013-04-26 08:33:00,64.0,32.0,29.97,WSW,248,3.0,6.0,30,0.00,,,0.00,,2013-04-26 15:33:00,
2013-04-26 08:42:00,64.0,32.0,29.97,WSW,248,3.0,6.0,30,0.00,,,0.00,,2013-04-26 15:42:00,
2013-04-26 08:53:00,65.0,32.0,29.97,WSW,248,3.0,8.0,29,0.00,,,0.00,,2013-04-26 15:53:00,
2013-04-26 09:03:00,66.0,30.0,30.00,WSW,248,3.0,6.0,26,0.00,,,0.00,,2013-04-26 16:03:00,
2013-04-26 09:12:00,66.0,30.0,30.00,WSW,248,3.0,6.0,26,0.00,,,0.00,,2013-04-26 16:12:00,
2013-04-26 09:22:00,67.0,31.0,29.97,WSW,248,5.0,8.0,26,0.00,,,0.00,,2013-04-26 16:22:00,
2013-04-26 09:32:00,69.0,27.0,30.00,West,270,7.0,10.0,21,0.00,,,0.00,,2013-04-26 16:32:00,
2013-04-26 09:42:00,69.0,27.0,30.00,West,270,7.0,10.0,21,0.00,,,0.00,,2013-04-26 16:42:00,
2013-04-26 09:52:00,69.0,27.0,30.00,West,270,7.0,12.0,21,0.00,,,0.00,,2013-04-26 16:52:00,
2013-04-26 10:02:00,70.0,25.0,30.00,West,268,7.0,10.0,18,0.00,,,0.00,,2013-04-26 17:02:00,
2013-04-26 10:11:00,70.0,25.0,30.00,West,268,7.0,10.0,18,0.00,,,0.00,,2013-04-26 17:11:00,
2013-04-26 10:21:00,71.0,25.0,30.00,West,260,7.0,10.0,18,0.00,,,0.00,,2013-04-26 17:21:00,
2013-04-26 10:31:00,71.0,25.0,30.00,West,270,7.0,9.0,18,0.00,,,0.00,,2013-04-26 17:31:00,
2013-04-26 10:41:00,71.0,25.0,30.00,West,270,7.0,9.0,18,0.00,,,0.00,,2013-04-26 17:41:00,
2013-04-26 10:52:00,72.0,25.0,30.00,West,270,6.0,10.0,17,0.00,,,0.00,,2013-04-26 17:52:00,
2013-04-26 11:02:00,74.0,26.0,30.00,West,270,6.0,8.0,17,0.00,,,0.00,,2013-04-26 18:02:00,
2013-04-26 11:11:00,76.0,27.0,30.00,WSW,248,5.0,9.0,16,0.00,,,0.00,,2013-04-26 18:11:00,
2013-04-26 11:22:00,76.0,27.0,30.00,WSW,248,5.0,9.0,16,0.00,,,0.00,,2013-04-26 18:22:00,
2013-04-26 11:33:00,76.0,27.0,30.00,West,270,2.0,7.0,16,0.00,,,0.00,,2013-04-26 18:33:00,
2013-04-26 11:41:00,76.0,27.0,30.00,West,270,2.0,7.0,16,0.00,,,0.00,,2013-04-26 18:41:00,
2013-04-26 11:52:00,77.0,24.0,30.03,West,270,5.0,12.0,14,0.00,,,0.00,,2013-04-26 18:52:00,
2013-04-26 12:01:00,80.0,25.0,30.00,West,270,5.0,8.0,13,0.00,,,0.00,,2013-04-26 19:01:00,
2013-04-26 12:11:00,80.0,25.0,30.00,West,270,5.0,8.0,13,0.00,,,0.00,,2013-04-26 19:11:00,
2013-04-26 12:22:00,80.0,25.0,30.03,West,270,3.0,7.0,13,0.00,,,0.00,,2013-04-26 19:22:00,
2013-04-26 12:31:00,81.0,26.0,30.03,WSW,248,5.0,6.0,13,0.00,,,0.00,,2013-04-26 19:31:00,
2013-04-26 12:41:00,81.0,26.0,30.03,WSW,248,5.0,6.0,13,0.00,,,0.00,,2013-04-26 19:41:00,
2013-04-26 12:52:00,81.0,26.0,30.00,SW,225,2.0,8.0,13,0.00,,,0.00,,2013-04-26 19:52:00,
2013-04-26 13:01:00,81.0,26.0,30.03,South,180,5.0,8.0,13,0.00,,,0.00,,2013-04-26 20:01:00,
2013-04-26 13:11:00,82.0,26.0,30.03,East,90,6.0,8.0,13,0.00,,,0.00,,2013-04-26 20:11:00,
2013-04-26 13:21:00,82.0,26.0,30.03,East,90,6.0,8.0,13,0.00,,,0.00,,2013-04-26 20:21:00,
2013-04-26 13:32:00,84.0,26.0,30.03,East,90,3.0,6.0,12,0.00,,,0.00,,2013-04-26 20:32:00,
2013-04-26 13:41:00,84.0,26.0,30.03,East,90,3.0,6.0,12,0.00,,,0.00,,2013-04-26 20:41:00,
2013-04-26 13:52:00,84.0,26.0,30.03,East,90,5.0,6.0,12,0.00,,,0.00,,2013-04-26 20:52:00,
2013-04-26 14:01:00,84.0,26.0,30.03,East,90,1.0,7.0,12,0.00,,,0.00,,2013-04-26 21:01:00,
2013-04-26 14:11:00,84.0,26.0,30.03,East,90,1.0,7.0,12,0.00,,,0.00,,2013-04-26 21:11:00,
2013-04-26 14:21:00,85.0,27.0,30.03,East,90,4.0,6.0,12,0.00,,,0.00,,2013-04-26 21:21:00,
2013-04-26 14:32:00,85.0,27.0,30.03,East,90,3.0,6.0,12,0.00,,,0.00,,2013-04-26 21:32:00,
2013-04-26 14:42:00,85.0,27.0,30.03,East,90,3.0,6.0,12,0.00,,,0.00,,2013-04-26 21:42:00,
2013-04-26 14:53:00,86.0,27.0,30.03,East,90,5.0,9.0,12,0.00,,,0.00,,2013-04-26 21:53:00,
2013-04-26 15:02:00,86.0,27.0,30.03,East,90,5.0,10.0,12,0.00,,,0.00,,2013-04-26 22:02:00,
2013-04-26 15:12:00,86.0,27.0,30.03,East,90,5.0,10.0,12,0.00,,,0.00,,2013-04-26 22:12:00,
2013-04-26 15:22:00,84.0,26.0,30.00,East,90,7.0,12.0,12,0.00,,,0.00,,2013-04-26 22:22:00,
2013-04-26 15:32:00,84.0,26.0,30.00,East,90,6.0,8.0,12,0.00,,,0.00,,2013-04-26 22:32:00,
2013-04-26 15:41:00,84.0,26.0,30.00,East,90,6.0,8.0,12,0.00,,,0.00,,2013-04-26 22:41:00,
2013-04-26 15:52:00,85.0,27.0,30.00,East,90,4.0,6.0,12,0.00,,,0.00,,2013-04-26 22:52:00,
2013-04-26 16:01:00,85.0,27.0,30.00,East,90,4.0,17.0,12,0.00,,,0.00,,2013-04-26 23:01:00,
2013-04-26 16:11:00,85.0,27.0,30.00,East,90,4.0,17.0,12,0.00,,,0.00,,2013-04-26 23:11:00,
2013-04-26 16:21:00,85.0,27.0,30.00,ENE,68,5.0,9.0,12,0.00,,,0.00,,2013-04-26 23:21:00,
2013-04-26 16:32:00,86.0,27.0,30.00,East,90,2.0,8.0,12,0.00,,,0.00,,2013-04-26 23:32:00,
2013-04-26 16:41:00,86.0,27.0,30.00,East,90,2.0,8.0,12,0.00,,,0.00,,2013-04-26 23:41:00,
2013-04-26 16:52:00,88.0,27.0,30.00,East,90,2.0,6.0,11,0.00,,,0.00,,2013-04-26 23:52:00,
2013-04-26 17:01:00,86.0,27.0,30.00,East,90,4.0,8.0,12,0.00,,,0.00,,2013-04-27 00:01:00,
2013-04-26 17:11:00,86.0,27.0,30.00,East,90,4.0,8.0,12,0.00,,,0.00,,2013-04-27 00:11:00,
2013-04-26 17:21:00,84.0,26.0,30.00,NE,45,7.0,9.0,12,0.00,,,0.00,,2013-04-27 00:21:00,
2013-04-26 17:31:00,84.0,26.0,30.00,North,0,7.0,9.0,12,0.00,,,0.00,,2013-04-27 00:31:00,
2013-04-26 17:41:00,84.0,26.0,30.00,North,0,7.0,9.0,12,0.00,,,0.00,,2013-04-27 00:41:00,
2013-04-26 17:51:00,85.0,27.0,30.00,East,90,5.0,6.0,12,0.00,,,0.00,,2013-04-27 00:51:00,
2013-04-26 18:01:00,84.0,26.0,30.00,East,90,6.0,8.0,12,0.00,,,0.00,,2013-04-27 01:01:00,
2013-04-26 18:11:00,84.0,26.0,30.00,East,90,6.0,8.0,12,0.00,,,0.00,,2013-04-27 01:11:00,
2013-04-26 18:21:00,84.0,26.0,30.00,NE,45,4.0,7.0,12,0.00,,,0.00,,2013-04-27 01:21:00,
2013-04-26 18:31:00,83.0,25.0,30.00,NE,45,6.0,9.0,12,0.00,,,0.00,,2013-04-27 01:31:00,
2013-04-26 18:41:00,83.0,25.0,30.00,NE,45,6.0,9.0,12,0.00,,,0.00,,2013-04-27 01:41:00,
2013-04-26 18:52:00,82.0,26.0,30.00,NE,45,5.0,8.0,13,0.00,,,0.00,,2013-04-27 01:52:00,
2013-04-26 19:01:00,82.0,26.0,30.00,NE,45,0.0,3.0,13,0.00,,,0.00,,2013-04-27 02:01:00,
2013-04-26 19:11:00,82.0,26.0,30.00,NE,45,0.0,3.0,13,0.00,,,0.00,,2013-04-27 02:11:00,
2013-04-26 19:21:00,81.0,26.0,30.00,NE,45,0.0,2.0,13,0.00,,,0.00,,2013-04-27 02:21:00,
2013-04-26 19:31:00,78.0,25.0,30.00,NE,45,5.0,8.0,14,0.00,,,0.00,,2013-04-27 02:31:00,
2013-04-26 19:42:00,78.0,25.0,30.00,NE,45,5.0,8.0,14,0.00,,,0.00,,2013-04-27 02:42:00,
2013-04-26 19:52:00,77.0,24.0,30.00,North,0,6.0,8.0,14,0.00,,,0.00,,2013-04-27 02:52:00,
2013-04-26 20:01:00,75.0,23.0,30.00,North,0,5.0,6.0,14,0.00,,,0.00,,2013-04-27 03:01:00,
2013-04-26 20:11:00,75.0,23.0,30.00,North,0,5.0,6.0,14,0.00,,,0.00,,2013-04-27 03:11:00,
2013-04-26 20:21:00,73.0,23.0,30.00,North,0,0.0,3.0,15,0.00,,,0.00,,2013-04-27 03:21:00,
2013-04-26 20:32:00,70.0,20.0,30.00,North,0,1.0,3.0,15,0.00,,,0.00,,2013-04-27 03:32:00,
2013-04-26 20:42:00,70.0,20.0,30.00,North,0,1.0,3.0,15,0.00,,,0.00,,2013-04-27 03:42:00,
2013-04-26 20:53:00,69.0,21.0,30.00,North,0,2.0,5.0,16,0.00,,,0.00,,2013-04-27 03:53:00,
2013-04-26 21:02:00,69.0,21.0,30.00,North,0,0.0,2.0,16,0.00,,,0.00,,2013-04-27 04:02:00,
2013-04-26 21:12:00,69.0,21.0,30.00,North,0,0.0,2.0,16,0.00,,,0.00,,2013-04-27 04:12:00,
2013-04-26 21:22:00,67.0,19.0,30.03,North,0,0.0,3.0,16,0.00,,,0.00,,2013-04-27 04:22:00,
2013-04-26 21:32:00,65.0,18.0,30.03,North,0,2.0,3.0,16,0.00,,,0.00,,2013-04-27 04:32:00,
2013-04-26 21:42:00,65.0,18.0,30.03,North,0,2.0,3.0,16,0.00,,,0.00,,2013-04-27 04:42:00,
2013-04-26 21:52:00,64.0,18.0,30.03,North,0,0.0,2.0,17,0.00,,,0.00,,2013-04-27 04:52:00,
2013-04-26 22:02:00,64.0,18.0,30.03,North,0,5.0,6.0,17,0.00,,,0.00,,2013-04-27 05:02:00,
2013-04-26 22:11:00,64.0,18.0,30.03,North,0,5.0,6.0,17,0.00,,,0.00,,2013-04-27 05:11:00,
2013-04-26 22:22:00,66.0,19.0,30.03,NW,315,3.0,5.0,16,0.00,,,0.00,,2013-04-27 05:22:00,
2013-04-26 22:31:00,66.0,19.0,30.03,NW,315,5.0,8.0,16,0.00,,,0.00,,2013-04-27 05:31:00,
2013-04-26 22:42:00,66.0,19.0,30.03,NW,315,5.0,8.0,16,0.00,,,0.00,,2013-04-27 05:42:00,
2013-04-26 22:52:00,65.0,18.0,30.03,NW,315,2.0,3.0,16,0.00,,,0.00,,2013-04-27 05:52:00,
2013-04-26 23:01:00,64.0,17.0,30.03,NW,315,0.0,0.0,16,0.00,,,0.00,,2013-04-27 06:01:00,
2013-04-26 23:11:00,64.0,17.0,30.03,NW,315,0.0,0.0,16,0.00,,,0.00,,2013-04-27 06:11:00,
2013-04-26 23:22:00,64.0,18.0,30.03,NW,315,2.0,3.0,17,0.00,,,0.00,,2013-04-27 06:22:00,
2013-04-26 23:32:00,64.0,18.0,30.03,NW,315,3.0,5.0,17,0.00,,,0.00,,2013-04-27 06:32:00,
2013-04-26 23:41:00,64.0,18.0,30.03,NW,315,3.0,5.0,17,0.00,,,0.00,,2013-04-27 06:41:00,
2013-04-26 23:52:00,64.0,17.0,30.03,NW,315,5.0,6.0,16,0.00,,,0.00,,2013-04-27 06:52:00,